sensor_id;sensor_type;location;lat;lon;timestamp;pressure;altitude;pressure_sealevel;temperature;humidity
75051;BME280;63628;47.656;11.310;2023-06-22T00:01:17;94804.53;;;23.32;58.95
75051;BME280;63628;47.656;11.310;2023-06-22T00:03:44;94807.94;;;23.06;60.10
75051;BME280;63628;47.656;11.310;2023-06-22T00:06:11;94799.69;;;24.25;58.85
75051;BME280;63628;47.656;11.310;2023-06-22T00:08:37;94803.28;;;23.69;59.64
75051;BME280;63628;47.656;11.310;2023-06-22T00:11:05;94791.09;;;24.58;58.30
75051;BME280;63628;47.656;11.310;2023-06-22T00:13:32;94790.91;;;23.94;60.07
75051;BME280;63628;47.656;11.310;2023-06-22T00:15:59;94787.47;;;24.37;58.51
75051;BME280;63628;47.656;11.310;2023-06-22T00:18:25;94787.47;;;24.37;57.90
75051;BME280;63628;47.656;11.310;2023-06-22T00:20:55;94783.78;;;24.58;57.79
75051;BME280;63628;47.656;11.310;2023-06-22T00:23:24;94780.41;;;23.35;59.59
75051;BME280;63628;47.656;11.310;2023-06-22T00:25:51;94755.91;;;22.39;62.34
75051;BME280;63628;47.656;11.310;2023-06-22T00:28:19;94769.06;;;23.56;60.02
75051;BME280;63628;47.656;11.310;2023-06-22T00:30:48;94766.75;;;24.15;58.27
75051;BME280;63628;47.656;11.310;2023-06-22T00:33:15;94772.28;;;23.84;57.54
75051;BME280;63628;47.656;11.310;2023-06-22T00:35:43;94765.78;;;24.02;58.83
75051;BME280;63628;47.656;11.310;2023-06-22T00:38:10;94760.56;;;24.40;57.53
75051;BME280;63628;47.656;11.310;2023-06-22T00:40:37;94763.25;;;24.49;57.20
75051;BME280;63628;47.656;11.310;2023-06-22T00:43:05;94755.47;;;24.39;57.51
75051;BME280;63628;47.656;11.310;2023-06-22T00:45:33;94763.75;;;24.51;57.86
75051;BME280;63628;47.656;11.310;2023-06-22T00:48:00;94765.31;;;24.52;57.82
75051;BME280;63628;47.656;11.310;2023-06-22T00:50:29;94760.72;;;24.52;57.25
75051;BME280;63628;47.656;11.310;2023-06-22T00:53:03;94755.28;;;24.52;57.68
75051;BME280;63628;47.656;11.310;2023-06-22T00:55:36;94760.06;;;24.55;57.22
75051;BME280;63628;47.656;11.310;2023-06-22T00:58:06;94752.41;;;24.06;55.82
75051;BME280;63628;47.656;11.310;2023-06-22T01:00:39;94759.72;;;23.96;59.03
75051;BME280;63628;47.656;11.310;2023-06-22T01:03:07;94751.34;;;24.32;57.31
75051;BME280;63628;47.656;11.310;2023-06-22T01:05:36;94748.63;;;24.41;57.60
75051;BME280;63628;47.656;11.310;2023-06-22T01:08:08;94746.22;;;24.48;57.07
75051;BME280;63628;47.656;11.310;2023-06-22T01:10:43;94739.56;;;24.37;57.11
75051;BME280;63628;47.656;11.310;2023-06-22T01:13:18;94757.22;;;24.52;56.82
75051;BME280;63628;47.656;11.310;2023-06-22T01:15:51;94760.09;;;24.47;56.02
75051;BME280;63628;47.656;11.310;2023-06-22T01:18:21;94761.38;;;24.41;57.13
75051;BME280;63628;47.656;11.310;2023-06-22T01:20:52;94754.34;;;24.48;56.74
75051;BME280;63628;47.656;11.310;2023-06-22T01:23:27;94752.28;;;24.54;56.27
75051;BME280;63628;47.656;11.310;2023-06-22T01:26:01;94747.03;;;24.49;56.65
75051;BME280;63628;47.656;11.310;2023-06-22T01:28:42;94762.22;;;23.58;56.04
75051;BME280;63628;47.656;11.310;2023-06-22T01:31:10;94758.69;;;23.49;59.70
75051;BME280;63628;47.656;11.310;2023-06-22T01:33:41;94758.97;;;24.22;56.70
75051;BME280;63628;47.656;11.310;2023-06-22T01:36:09;94753.41;;;24.36;57.29
75051;BME280;63628;47.656;11.310;2023-06-22T01:38:38;94749.13;;;24.34;57.17
75051;BME280;63628;47.656;11.310;2023-06-22T01:41:05;94746.72;;;24.42;56.58
75051;BME280;63628;47.656;11.310;2023-06-22T01:43:32;94741.31;;;24.42;56.51
75051;BME280;63628;47.656;11.310;2023-06-22T01:46:01;94745.78;;;24.38;56.89
75051;BME280;63628;47.656;11.310;2023-06-22T01:48:28;94744.19;;;24.37;57.13
75051;BME280;63628;47.656;11.310;2023-06-22T01:50:55;94743.53;;;24.40;56.89
75051;BME280;63628;47.656;11.310;2023-06-22T01:53:22;94739.72;;;24.32;56.83
75051;BME280;63628;47.656;11.310;2023-06-22T01:55:49;94738.78;;;24.37;56.69
75051;BME280;63628;47.656;11.310;2023-06-22T01:58:16;94730.66;;;24.28;57.01
75051;BME280;63628;47.656;11.310;2023-06-22T02:00:48;94745.22;;;23.58;57.43
75051;BME280;63628;47.656;11.310;2023-06-22T02:03:19;94746.69;;;23.73;58.51
75051;BME280;63628;47.656;11.310;2023-06-22T02:05:50;94748.00;;;24.18;57.44
75051;BME280;63628;47.656;11.310;2023-06-22T02:08:20;94741.16;;;24.21;57.24
75051;BME280;63628;47.656;11.310;2023-06-22T02:10:49;94749.25;;;24.21;56.97
75051;BME280;63628;47.656;11.310;2023-06-22T02:13:17;94747.19;;;24.18;57.50
75051;BME280;63628;47.656;11.310;2023-06-22T02:15:44;94748.31;;;22.94;59.92
75051;BME280;63628;47.656;11.310;2023-06-22T02:18:11;94753.84;;;23.29;58.01
75051;BME280;63628;47.656;11.310;2023-06-22T02:20:40;94751.16;;;23.94;57.59
75051;BME280;63628;47.656;11.310;2023-06-22T02:23:07;94757.06;;;24.14;57.31
75051;BME280;63628;47.656;11.310;2023-06-22T02:25:34;94756.91;;;24.19;56.65
75051;BME280;63628;47.656;11.310;2023-06-22T02:28:02;94759.44;;;24.15;56.98
75051;BME280;63628;47.656;11.310;2023-06-22T02:30:29;94754.19;;;24.19;56.25
75051;BME280;63628;47.656;11.310;2023-06-22T02:32:56;94765.59;;;21.13;66.95
75051;BME280;63628;47.656;11.310;2023-06-22T02:35:26;94766.38;;;23.56;58.63
75051;BME280;63628;47.656;11.310;2023-06-22T02:37:54;94762.44;;;23.96;57.08
75051;BME280;63628;47.656;11.310;2023-06-22T02:40:21;94759.13;;;24.08;56.60
75051;BME280;63628;47.656;11.310;2023-06-22T02:42:47;94763.59;;;24.13;56.36
75051;BME280;63628;47.656;11.310;2023-06-22T02:45:14;94774.75;;;20.84;62.40
75051;BME280;63628;47.656;11.310;2023-06-22T02:47:41;94775.72;;;21.84;63.53
75051;BME280;63628;47.656;11.310;2023-06-22T02:50:08;94769.16;;;23.42;58.38
75051;BME280;63628;47.656;11.310;2023-06-22T02:52:35;94776.09;;;23.83;57.14
75051;BME280;63628;47.656;11.310;2023-06-22T02:55:04;94779.28;;;23.93;56.77
75051;BME280;63628;47.656;11.310;2023-06-22T02:57:31;94775.06;;;20.13;64.03
75051;BME280;63628;47.656;11.310;2023-06-22T02:59:58;94775.78;;;22.74;60.69
75051;BME280;63628;47.656;11.310;2023-06-22T03:02:24;94772.91;;;23.63;57.92
75051;BME280;63628;47.656;11.310;2023-06-22T03:04:52;94769.41;;;23.80;57.16
75051;BME280;63628;47.656;11.310;2023-06-22T03:07:20;94769.38;;;22.84;57.29
75051;BME280;63628;47.656;11.310;2023-06-22T03:09:46;94778.66;;;23.39;57.86
75051;BME280;63628;47.656;11.310;2023-06-22T03:12:14;94771.97;;;23.77;57.17
75051;BME280;63628;47.656;11.310;2023-06-22T03:14:41;94773.72;;;23.81;57.10
75051;BME280;63628;47.656;11.310;2023-06-22T03:17:08;94766.88;;;23.27;54.62
75051;BME280;63628;47.656;11.310;2023-06-22T03:19:35;94776.72;;;21.89;61.68
75051;BME280;63628;47.656;11.310;2023-06-22T03:22:02;94782.31;;;23.35;57.81
75051;BME280;63628;47.656;11.310;2023-06-22T03:24:28;94760.50;;;23.71;57.19
75051;BME280;63628;47.656;11.310;2023-06-22T03:26:56;94754.16;;;23.76;57.19
75051;BME280;63628;47.656;11.310;2023-06-22T03:29:24;94764.75;;;23.15;55.30
75051;BME280;63628;47.656;11.310;2023-06-22T03:31:55;94770.63;;;21.47;59.60
75051;BME280;63628;47.656;11.310;2023-06-22T03:34:21;94779.75;;;18.98;71.46
75051;BME280;63628;47.656;11.310;2023-06-22T03:36:48;94777.19;;;19.97;68.03
75051;BME280;63628;47.656;11.310;2023-06-22T03:39:15;94777.59;;;23.09;58.92
75051;BME280;63628;47.656;11.310;2023-06-22T03:41:41;94774.72;;;22.30;57.31
75051;BME280;63628;47.656;11.310;2023-06-22T03:44:08;94780.34;;;22.87;58.65
75051;BME280;63628;47.656;11.310;2023-06-22T03:46:40;94776.47;;;23.42;57.16
75051;BME280;63628;47.656;11.310;2023-06-22T03:49:06;94775.88;;;23.53;56.78
75051;BME280;63628;47.656;11.310;2023-06-22T03:51:33;94774.63;;;23.59;56.68
75051;BME280;63628;47.656;11.310;2023-06-22T03:54:00;94785.03;;;23.04;56.25
75051;BME280;63628;47.656;11.310;2023-06-22T03:56:27;94788.09;;;23.51;56.95
75051;BME280;63628;47.656;11.310;2023-06-22T03:58:53;94784.75;;;23.54;57.15
75051;BME280;63628;47.656;11.310;2023-06-22T04:01:20;94787.16;;;23.16;55.90
75051;BME280;63628;47.656;11.310;2023-06-22T04:03:48;94784.53;;;22.93;58.46
75051;BME280;63628;47.656;11.310;2023-06-22T04:06:16;94777.91;;;23.48;56.79
75051;BME280;63628;47.656;11.310;2023-06-22T04:08:44;94780.78;;;23.51;57.03
75051;BME280;63628;47.656;11.310;2023-06-22T04:11:11;94781.47;;;23.57;56.53
75051;BME280;63628;47.656;11.310;2023-06-22T04:13:37;94771.78;;;23.56;56.72
75051;BME280;63628;47.656;11.310;2023-06-22T04:16:04;94766.66;;;23.54;55.59
75051;BME280;63628;47.656;11.310;2023-06-22T04:18:31;94783.13;;;22.29;60.41
75051;BME280;63628;47.656;11.310;2023-06-22T04:20:59;94781.03;;;21.21;63.10
75051;BME280;63628;47.656;11.310;2023-06-22T04:23:25;94779.28;;;22.74;59.45
75051;BME280;63628;47.656;11.310;2023-06-22T04:25:52;94774.13;;;23.18;57.46
75051;BME280;63628;47.656;11.310;2023-06-22T04:28:19;94776.06;;;22.86;58.66
75051;BME280;63628;47.656;11.310;2023-06-22T04:30:45;94774.22;;;22.28;60.88
75051;BME280;63628;47.656;11.310;2023-06-22T04:33:15;94778.06;;;21.64;63.01
75051;BME280;63628;47.656;11.310;2023-06-22T04:35:45;94779.88;;;22.40;60.05
75051;BME280;63628;47.656;11.310;2023-06-22T04:38:13;94776.88;;;22.87;57.93
75051;BME280;63628;47.656;11.310;2023-06-22T04:40:40;94769.69;;;23.22;56.72
75051;BME280;63628;47.656;11.310;2023-06-22T04:43:07;94770.78;;;22.00;61.56
75051;BME280;63628;47.656;11.310;2023-06-22T04:45:33;94765.75;;;22.66;60.20
75051;BME280;63628;47.656;11.310;2023-06-22T04:48:01;94774.78;;;21.26;64.37
75051;BME280;63628;47.656;11.310;2023-06-22T04:50:28;94773.84;;;22.66;58.72
75051;BME280;63628;47.656;11.310;2023-06-22T04:52:55;94779.13;;;20.48;69.88
75051;BME280;63628;47.656;11.310;2023-06-22T04:55:23;94763.91;;;22.53;59.84
75051;BME280;63628;47.656;11.310;2023-06-22T04:57:52;94774.00;;;22.83;58.38
75051;BME280;63628;47.656;11.310;2023-06-22T05:00:19;94775.28;;;20.68;68.65
75051;BME280;63628;47.656;11.310;2023-06-22T05:02:46;94771.66;;;20.07;71.81
75051;BME280;63628;47.656;11.310;2023-06-22T05:05:13;94772.59;;;21.55;64.03
75051;BME280;63628;47.656;11.310;2023-06-22T05:07:42;94771.88;;;22.58;59.55
75051;BME280;63628;47.656;11.310;2023-06-22T05:10:10;94776.56;;;22.88;58.21
75051;BME280;63628;47.656;11.310;2023-06-22T05:12:40;94776.59;;;21.58;64.96
75051;BME280;63628;47.656;11.310;2023-06-22T05:15:08;94772.91;;;22.70;58.99
75051;BME280;63628;47.656;11.310;2023-06-22T05:17:36;94774.00;;;22.83;58.56
75051;BME280;63628;47.656;11.310;2023-06-22T05:20:03;94769.31;;;23.06;57.60
75051;BME280;63628;47.656;11.310;2023-06-22T05:22:32;94768.72;;;23.09;57.28
75051;BME280;63628;47.656;11.310;2023-06-22T05:24:59;94772.19;;;23.09;57.34
75051;BME280;63628;47.656;11.310;2023-06-22T05:27:26;94770.16;;;22.62;59.40
75051;BME280;63628;47.656;11.310;2023-06-22T05:29:54;94773.44;;;23.03;57.52
75051;BME280;63628;47.656;11.310;2023-06-22T05:32:20;94781.47;;;22.86;59.94
75051;BME280;63628;47.656;11.310;2023-06-22T05:34:47;94785.06;;;22.59;64.93
75051;BME280;63628;47.656;11.310;2023-06-22T05:37:14;94791.34;;;22.46;61.58
75051;BME280;63628;47.656;11.310;2023-06-22T05:39:41;94780.88;;;22.98;57.96
75051;BME280;63628;47.656;11.310;2023-06-22T05:42:07;94783.31;;;21.82;68.57
75051;BME280;63628;47.656;11.310;2023-06-22T05:44:36;94788.25;;;21.67;68.94
75051;BME280;63628;47.656;11.310;2023-06-22T05:47:06;94783.78;;;21.48;69.49
75051;BME280;63628;47.656;11.310;2023-06-22T05:49:32;94777.59;;;22.56;60.32
75051;BME280;63628;47.656;11.310;2023-06-22T05:51:59;94783.22;;;22.68;65.11
75051;BME280;63628;47.656;11.310;2023-06-22T05:54:27;94788.94;;;22.44;66.42
75051;BME280;63628;47.656;11.310;2023-06-22T05:56:54;94784.34;;;21.73;67.10
75051;BME280;63628;47.656;11.310;2023-06-22T05:59:21;94790.34;;;22.42;63.30
75051;BME280;63628;47.656;11.310;2023-06-22T06:01:47;94781.81;;;22.71;65.40
75051;BME280;63628;47.656;11.310;2023-06-22T06:04:18;94784.66;;;22.07;64.82
75051;BME280;63628;47.656;11.310;2023-06-22T06:06:46;94791.91;;;21.71;68.32
75051;BME280;63628;47.656;11.310;2023-06-22T06:09:13;94786.03;;;21.69;67.72
75051;BME280;63628;47.656;11.310;2023-06-22T06:11:40;94784.75;;;22.16;67.91
75051;BME280;63628;47.656;11.310;2023-06-22T06:14:07;94776.56;;;22.43;66.23
75051;BME280;63628;47.656;11.310;2023-06-22T06:16:33;94766.50;;;22.58;66.85
75051;BME280;63628;47.656;11.310;2023-06-22T06:19:00;94763.16;;;23.14;67.40
75051;BME280;63628;47.656;11.310;2023-06-22T06:21:28;94766.47;;;23.02;59.96
75051;BME280;63628;47.656;11.310;2023-06-22T06:23:56;94765.28;;;22.86;66.30
75051;BME280;63628;47.656;11.310;2023-06-22T06:26:23;94767.59;;;22.79;66.50
75051;BME280;63628;47.656;11.310;2023-06-22T06:28:55;94762.16;;;23.01;59.35
75051;BME280;63628;47.656;11.310;2023-06-22T06:31:22;94761.84;;;23.43;64.08
75051;BME280;63628;47.656;11.310;2023-06-22T06:33:50;94759.84;;;23.57;63.81
75051;BME280;63628;47.656;11.310;2023-06-22T06:36:17;94746.91;;;24.28;63.05
75051;BME280;63628;47.656;11.310;2023-06-22T06:38:45;94753.88;;;24.20;63.28
75051;BME280;63628;47.656;11.310;2023-06-22T06:41:14;94743.94;;;24.85;61.41
75051;BME280;63628;47.656;11.310;2023-06-22T06:43:42;94741.63;;;25.13;61.98
75051;BME280;63628;47.656;11.310;2023-06-22T06:46:11;94737.13;;;24.61;63.28
75051;BME280;63628;47.656;11.310;2023-06-22T06:48:38;94734.94;;;24.20;59.37
75051;BME280;63628;47.656;11.310;2023-06-22T06:51:06;94738.63;;;24.33;58.12
75051;BME280;63628;47.656;11.310;2023-06-22T06:53:36;94730.19;;;25.07;63.28
75051;BME280;63628;47.656;11.310;2023-06-22T06:56:04;94733.47;;;25.80;59.23
75051;BME280;63628;47.656;11.310;2023-06-22T06:58:31;94717.47;;;25.87;59.08
75051;BME280;63628;47.656;11.310;2023-06-22T07:00:59;94722.06;;;25.07;59.89
75051;BME280;63628;47.656;11.310;2023-06-22T07:03:26;94734.41;;;25.55;60.83
75051;BME280;63628;47.656;11.310;2023-06-22T07:05:53;94723.69;;;25.88;56.51
75051;BME280;63628;47.656;11.310;2023-06-22T07:08:19;94715.28;;;25.22;59.85
75051;BME280;63628;47.656;11.310;2023-06-22T07:10:46;94721.63;;;26.47;57.07
75051;BME280;63628;47.656;11.310;2023-06-22T07:13:14;94722.56;;;26.31;59.08
75051;BME280;63628;47.656;11.310;2023-06-22T07:15:41;94718.44;;;25.62;58.02
75051;BME280;63628;47.656;11.310;2023-06-22T07:18:08;94716.41;;;26.42;57.79
75051;BME280;63628;47.656;11.310;2023-06-22T07:20:35;94712.63;;;27.13;53.66
75051;BME280;63628;47.656;11.310;2023-06-22T07:23:02;94711.97;;;27.53;53.56
75051;BME280;63628;47.656;11.310;2023-06-22T07:25:29;94711.41;;;27.35;54.95
75051;BME280;63628;47.656;11.310;2023-06-22T07:28:01;94714.91;;;27.23;56.07
75051;BME280;63628;47.656;11.310;2023-06-22T07:30:31;94715.22;;;27.83;56.01
75051;BME280;63628;47.656;11.310;2023-06-22T07:32:59;94708.00;;;28.27;51.94
75051;BME280;63628;47.656;11.310;2023-06-22T07:35:30;94718.53;;;27.39;49.10
75051;BME280;63628;47.656;11.310;2023-06-22T07:37:57;94706.03;;;26.23;57.38
75051;BME280;63628;47.656;11.310;2023-06-22T07:40:23;94706.00;;;26.90;58.63
75051;BME280;63628;47.656;11.310;2023-06-22T07:42:50;94701.22;;;28.92;52.74
75051;BME280;63628;47.656;11.310;2023-06-22T07:45:18;94697.69;;;29.23;51.37
75051;BME280;63628;47.656;11.310;2023-06-22T07:47:46;94701.38;;;29.62;50.49
75051;BME280;63628;47.656;11.310;2023-06-22T07:50:13;94697.00;;;28.95;52.39
75051;BME280;63628;47.656;11.310;2023-06-22T07:52:40;94693.31;;;29.50;48.71
75051;BME280;63628;47.656;11.310;2023-06-22T07:55:08;94690.50;;;29.47;48.05
75051;BME280;63628;47.656;11.310;2023-06-22T07:57:34;94687.09;;;29.69;49.60
75051;BME280;63628;47.656;11.310;2023-06-22T08:00:04;94691.03;;;29.52;46.50
75051;BME280;63628;47.656;11.310;2023-06-22T08:02:41;94688.31;;;27.93;56.05
75051;BME280;63628;47.656;11.310;2023-06-22T08:05:10;94683.34;;;28.79;53.33
75051;BME280;63628;47.656;11.310;2023-06-22T08:07:41;94690.31;;;29.08;49.51
75051;BME280;63628;47.656;11.310;2023-06-22T08:10:11;94672.22;;;28.84;52.01
75051;BME280;63628;47.656;11.310;2023-06-22T08:12:38;94670.31;;;30.21;48.63
75051;BME280;63628;47.656;11.310;2023-06-22T08:15:06;94660.78;;;30.96;43.95
75051;BME280;63628;47.656;11.310;2023-06-22T08:17:34;94661.28;;;26.75;50.37
75051;BME280;63628;47.656;11.310;2023-06-22T08:20:01;94664.81;;;26.88;50.40
75051;BME280;63628;47.656;11.310;2023-06-22T08:22:31;94652.06;;;29.90;47.34
75051;BME280;63628;47.656;11.310;2023-06-22T08:24:59;94644.63;;;30.87;45.01
75051;BME280;63628;47.656;11.310;2023-06-22T08:27:27;94647.81;;;30.09;47.58
75051;BME280;63628;47.656;11.310;2023-06-22T08:29:56;94650.41;;;30.82;47.20
75051;BME280;63628;47.656;11.310;2023-06-22T08:32:25;94641.88;;;29.87;45.58
75051;BME280;63628;47.656;11.310;2023-06-22T08:34:53;94652.25;;;30.36;46.39
75051;BME280;63628;47.656;11.310;2023-06-22T08:37:20;94654.84;;;30.68;46.57
75051;BME280;63628;47.656;11.310;2023-06-22T08:39:51;94650.41;;;29.66;44.67
75051;BME280;63628;47.656;11.310;2023-06-22T08:42:18;94651.75;;;29.57;46.03
75051;BME280;63628;47.656;11.310;2023-06-22T08:44:44;94646.44;;;31.03;41.81
75051;BME280;63628;47.656;11.310;2023-06-22T08:47:11;94648.88;;;31.31;44.46
75051;BME280;63628;47.656;11.310;2023-06-22T08:49:38;94643.63;;;30.34;48.17
75051;BME280;63628;47.656;11.310;2023-06-22T08:52:05;94633.88;;;30.98;47.47
75051;BME280;63628;47.656;11.310;2023-06-22T08:54:33;94640.66;;;29.65;47.10
75051;BME280;63628;47.656;11.310;2023-06-22T08:57:02;94643.31;;;28.52;52.93
75051;BME280;63628;47.656;11.310;2023-06-22T08:59:29;94638.63;;;31.24;48.74
75051;BME280;63628;47.656;11.310;2023-06-22T09:01:56;94638.81;;;32.95;41.23
75051;BME280;63628;47.656;11.310;2023-06-22T09:04:24;94633.19;;;33.25;38.54
75051;BME280;63628;47.656;11.310;2023-06-22T09:06:51;94631.84;;;32.64;40.83
75051;BME280;63628;47.656;11.310;2023-06-22T09:09:18;94632.72;;;32.72;40.33
75051;BME280;63628;47.656;11.310;2023-06-22T09:11:45;94629.22;;;33.74;38.26
75051;BME280;63628;47.656;11.310;2023-06-22T09:14:13;94627.97;;;33.09;40.25
75051;BME280;63628;47.656;11.310;2023-06-22T09:16:40;94631.09;;;33.59;38.99
75051;BME280;63628;47.656;11.310;2023-06-22T09:19:07;94633.13;;;31.01;46.72
75051;BME280;63628;47.656;11.310;2023-06-22T09:21:34;94627.63;;;32.74;44.06
75051;BME280;63628;47.656;11.310;2023-06-22T09:24:00;94625.44;;;33.96;36.87
75051;BME280;63628;47.656;11.310;2023-06-22T09:26:27;94623.88;;;33.33;39.90
75051;BME280;63628;47.656;11.310;2023-06-22T09:28:54;94627.13;;;33.02;41.04
75051;BME280;63628;47.656;11.310;2023-06-22T09:31:22;94622.91;;;33.66;38.89
75051;BME280;63628;47.656;11.310;2023-06-22T09:33:54;94626.59;;;33.30;40.29
75051;BME280;63628;47.656;11.310;2023-06-22T09:36:21;94618.63;;;33.18;39.73
75051;BME280;63628;47.656;11.310;2023-06-22T09:38:48;94623.75;;;33.19;41.03
75051;BME280;63628;47.656;11.310;2023-06-22T09:41:15;94625.06;;;32.92;44.41
75051;BME280;63628;47.656;11.310;2023-06-22T09:43:42;94613.69;;;33.34;45.60
75051;BME280;63628;47.656;11.310;2023-06-22T09:46:10;94608.91;;;33.86;39.46
75051;BME280;63628;47.656;11.310;2023-06-22T09:48:37;94609.38;;;34.06;39.72
75051;BME280;63628;47.656;11.310;2023-06-22T09:51:06;94615.63;;;32.15;40.79
75051;BME280;63628;47.656;11.310;2023-06-22T09:53:33;94609.88;;;32.61;41.53
75051;BME280;63628;47.656;11.310;2023-06-22T09:56:01;94589.94;;;33.08;44.22
75051;BME280;63628;47.656;11.310;2023-06-22T09:58:28;94601.31;;;33.65;39.80
75051;BME280;63628;47.656;11.310;2023-06-22T10:00:55;94595.09;;;33.79;41.85
75051;BME280;63628;47.656;11.310;2023-06-22T10:03:21;94598.53;;;34.45;43.37
75051;BME280;63628;47.656;11.310;2023-06-22T10:05:51;94599.09;;;32.41;45.91
75051;BME280;63628;47.656;11.310;2023-06-22T10:08:17;94594.91;;;32.17;41.93
75051;BME280;63628;47.656;11.310;2023-06-22T10:10:44;94590.72;;;33.63;39.43
75051;BME280;63628;47.656;11.310;2023-06-22T10:13:11;94585.81;;;33.97;39.98
75051;BME280;63628;47.656;11.310;2023-06-22T10:15:38;94585.59;;;35.63;36.72
75051;BME280;63628;47.656;11.310;2023-06-22T10:18:05;94583.66;;;35.52;36.66
75051;BME280;63628;47.656;11.310;2023-06-22T10:20:32;94580.91;;;34.74;36.82
75051;BME280;63628;47.656;11.310;2023-06-22T10:23:00;94575.81;;;35.22;34.62
75051;BME280;63628;47.656;11.310;2023-06-22T10:25:27;94577.78;;;35.22;33.73
75051;BME280;63628;47.656;11.310;2023-06-22T10:27:54;94580.50;;;34.58;32.27
75051;BME280;63628;47.656;11.310;2023-06-22T10:30:21;94577.78;;;35.22;32.75
75051;BME280;63628;47.656;11.310;2023-06-22T10:32:48;94574.25;;;35.28;32.25
75051;BME280;63628;47.656;11.310;2023-06-22T10:35:14;94580.91;;;34.56;29.87
75051;BME280;63628;47.656;11.310;2023-06-22T10:37:43;94570.19;;;34.23;31.96
75051;BME280;63628;47.656;11.310;2023-06-22T10:40:13;94574.09;;;34.22;29.62
75051;BME280;63628;47.656;11.310;2023-06-22T10:42:39;94571.31;;;34.11;30.94
75051;BME280;63628;47.656;11.310;2023-06-22T10:45:07;94571.75;;;34.20;29.08
75051;BME280;63628;47.656;11.310;2023-06-22T10:47:35;94574.41;;;33.88;34.49
75051;BME280;63628;47.656;11.310;2023-06-22T10:50:02;94570.06;;;33.87;33.85
75051;BME280;63628;47.656;11.310;2023-06-22T10:52:29;94566.44;;;32.63;38.82
75051;BME280;63628;47.656;11.310;2023-06-22T10:54:56;94571.53;;;32.64;39.59
75051;BME280;63628;47.656;11.310;2023-06-22T10:57:24;94569.19;;;29.98;45.78
75051;BME280;63628;47.656;11.310;2023-06-22T10:59:50;94566.41;;;30.37;41.38
75051;BME280;63628;47.656;11.310;2023-06-22T11:02:17;94551.22;;;32.28;36.18
75051;BME280;63628;47.656;11.310;2023-06-22T11:04:44;94558.50;;;31.24;40.07
75051;BME280;63628;47.656;11.310;2023-06-22T11:07:11;94557.53;;;33.28;36.52
75051;BME280;63628;47.656;11.310;2023-06-22T11:09:37;94562.22;;;33.82;32.26
75051;BME280;63628;47.656;11.310;2023-06-22T11:12:06;94553.78;;;34.51;32.15
75051;BME280;63628;47.656;11.310;2023-06-22T11:14:34;94552.16;;;34.36;31.89
75051;BME280;63628;47.656;11.310;2023-06-22T11:17:01;94550.56;;;34.31;33.98
75051;BME280;63628;47.656;11.310;2023-06-22T11:19:28;94551.44;;;34.71;31.06
75051;BME280;63628;47.656;11.310;2023-06-22T11:21:55;94548.69;;;34.78;31.15
75051;BME280;63628;47.656;11.310;2023-06-22T11:24:22;94547.09;;;32.89;32.33
75051;BME280;63628;47.656;11.310;2023-06-22T11:26:48;94541.78;;;31.06;42.35
75051;BME280;63628;47.656;11.310;2023-06-22T11:29:15;94542.81;;;32.95;28.76
75051;BME280;63628;47.656;11.310;2023-06-22T11:32:03;94543.53;;;31.44;41.45
75051;BME280;63628;47.656;11.310;2023-06-22T11:34:30;94549.44;;;29.66;43.17
75051;BME280;63628;47.656;11.310;2023-06-22T11:36:57;94545.06;;;32.05;38.86
75051;BME280;63628;47.656;11.310;2023-06-22T11:39:24;94544.50;;;29.72;46.56
75051;BME280;63628;47.656;11.310;2023-06-22T11:42:10;94542.31;;;30.43;38.87
75051;BME280;63628;47.656;11.310;2023-06-22T11:44:37;94528.72;;;31.18;42.33
75051;BME280;63628;47.656;11.310;2023-06-22T11:47:06;94526.91;;;31.90;41.65
75051;BME280;63628;47.656;11.310;2023-06-22T11:49:32;94529.41;;;29.24;48.87
75051;BME280;63628;47.656;11.310;2023-06-22T11:51:59;94528.78;;;29.46;48.72
75051;BME280;63628;47.656;11.310;2023-06-22T11:54:26;94529.84;;;31.74;44.94
75051;BME280;63628;47.656;11.310;2023-06-22T11:56:53;94532.13;;;30.40;46.26
75051;BME280;63628;47.656;11.310;2023-06-22T11:59:19;94535.81;;;30.05;50.50
75051;BME280;63628;47.656;11.310;2023-06-22T12:01:47;94532.41;;;28.99;50.29
75051;BME280;63628;47.656;11.310;2023-06-22T12:04:16;94533.03;;;28.77;51.34
75051;BME280;63628;47.656;11.310;2023-06-22T12:06:43;94526.88;;;28.49;52.20
75051;BME280;63628;47.656;11.310;2023-06-22T12:09:10;94530.63;;;29.07;51.40
75051;BME280;63628;47.656;11.310;2023-06-22T12:11:36;94517.66;;;28.53;52.67
75051;BME280;63628;47.656;11.310;2023-06-22T12:14:04;94517.00;;;29.61;50.31
75051;BME280;63628;47.656;11.310;2023-06-22T12:16:31;94523.66;;;28.27;53.65
75051;BME280;63628;47.656;11.310;2023-06-22T12:18:57;94522.06;;;28.89;52.03
75051;BME280;63628;47.656;11.310;2023-06-22T12:21:25;94522.56;;;29.30;53.46
75051;BME280;63628;47.656;11.310;2023-06-22T12:23:52;94516.69;;;28.93;51.44
75051;BME280;63628;47.656;11.310;2023-06-22T12:26:19;94525.03;;;28.53;53.46
75051;BME280;63628;47.656;11.310;2023-06-22T12:28:45;94511.88;;;28.70;52.19
75051;BME280;63628;47.656;11.310;2023-06-22T12:31:13;94518.34;;;28.19;54.73
75051;BME280;63628;47.656;11.310;2023-06-22T12:33:40;94518.13;;;29.06;52.35
75051;BME280;63628;47.656;11.310;2023-06-22T12:36:08;94517.91;;;28.17;53.84
75051;BME280;63628;47.656;11.310;2023-06-22T12:38:36;94513.59;;;28.00;55.21
75051;BME280;63628;47.656;11.310;2023-06-22T12:41:02;94513.06;;;28.10;55.00
75051;BME280;63628;47.656;11.310;2023-06-22T12:43:29;94515.47;;;28.43;53.73
75051;BME280;63628;47.656;11.310;2023-06-22T12:45:55;94513.44;;;28.08;55.63
75051;BME280;63628;47.656;11.310;2023-06-22T12:48:23;94517.06;;;28.28;54.17
75051;BME280;63628;47.656;11.310;2023-06-22T12:50:49;94509.03;;;28.83;53.05
75051;BME280;63628;47.656;11.310;2023-06-22T12:53:16;94515.09;;;27.97;56.19